createdAt,value
2018-09-05T00:00:13.437Z,9.37
2018-09-05T00:00:47.591Z,8.57
2018-09-05T00:01:21.464Z,10.80
2018-09-05T00:01:55.342Z,10.33
2018-09-05T00:02:29.181Z,9.13
2018-09-05T00:03:03.048Z,9.73
2018-09-05T00:03:36.985Z,9.40
2018-09-05T00:04:10.849Z,8.40
2018-09-05T00:04:44.675Z,7.60
2018-09-05T00:05:23.997Z,9.03
2018-09-05T00:05:58.207Z,9.50
2018-09-05T00:06:32.061Z,8.20
2018-09-05T00:07:06.825Z,11.70
2018-09-05T00:07:40.693Z,9.83
2018-09-05T00:08:14.663Z,11.63
2018-09-05T00:08:48.851Z,8.87
2018-09-05T00:09:23.052Z,8.77
2018-09-05T00:09:56.929Z,8.20
2018-09-05T00:10:30.778Z,9.23
2018-09-05T00:11:05.012Z,8.00
2018-09-05T00:11:39.579Z,9.80
2018-09-05T00:12:13.767Z,10.37
2018-09-05T00:12:47.603Z,10.33
2018-09-05T00:13:21.477Z,7.90
2018-09-05T00:13:55.659Z,10.20
2018-09-05T00:14:29.870Z,9.63
2018-09-05T00:15:04.044Z,11.30
2018-09-05T00:15:37.933Z,12.00
2018-09-05T00:16:11.815Z,8.37
2018-09-05T00:16:45.973Z,11.50
2018-09-05T00:17:22.933Z,10.00
2018-09-05T00:17:56.837Z,8.77
2018-09-05T00:18:30.738Z,11.43
2018-09-05T00:19:04.731Z,10.93
2018-09-05T00:19:38.611Z,9.27
2018-09-05T00:20:12.808Z,10.40
2018-09-05T00:20:46.669Z,10.53
2018-09-05T00:21:20.946Z,8.43
2018-09-05T00:21:55.295Z,10.53
2018-09-05T00:22:29.466Z,8.67
2018-09-05T00:23:03.621Z,12.60
2018-09-05T00:23:38.138Z,12.60
2018-09-05T00:24:12.292Z,8.27
2018-09-05T00:24:46.146Z,10.07
2018-09-05T00:25:21.391Z,10.63
2018-09-05T00:25:55.254Z,8.67
2018-09-05T00:26:35.552Z,9.77
2018-09-05T00:27:09.384Z,9.53
2018-09-05T00:27:43.562Z,7.77
2018-09-05T00:28:17.413Z,12.33
2018-09-05T00:28:51.759Z,9.10
2018-09-05T00:29:25.764Z,9.00
2018-09-05T00:30:00.302Z,10.50
2018-09-05T00:30:35.370Z,7.93
2018-09-05T00:31:10.864Z,11.13
2018-09-05T00:31:44.738Z,16.10
2018-09-05T00:32:19.280Z,7.90
2018-09-05T00:32:53.473Z,10.53
2018-09-05T00:33:27.312Z,8.70
2018-09-05T00:34:01.499Z,9.53
2018-09-05T00:34:35.428Z,12.43
2018-09-05T00:35:09.290Z,10.80
2018-09-05T00:35:43.152Z,17.00
2018-09-05T00:36:17.026Z,10.00
2018-09-05T00:36:50.924Z,10.27
2018-09-05T00:37:24.799Z,9.27
2018-09-05T00:37:58.683Z,13.27
2018-09-05T00:38:32.565Z,9.53
2018-09-05T00:39:08.329Z,11.10
2018-09-05T00:39:42.193Z,10.93
2018-09-05T00:40:16.388Z,10.07
2018-09-05T00:40:50.591Z,10.27
2018-09-05T00:41:24.413Z,10.83
2018-09-05T00:41:58.629Z,9.50
2018-09-05T00:42:32.477Z,10.70
2018-09-05T00:43:06.337Z,8.80
2018-09-05T00:43:40.182Z,9.00
2018-09-05T00:44:14.024Z,9.73
2018-09-05T00:44:48.232Z,10.33
2018-09-05T00:45:22.083Z,9.40
2018-09-05T00:45:55.913Z,11.33
2018-09-05T00:46:29.813Z,9.70
2018-09-05T00:47:04.044Z,9.40
2018-09-05T00:47:38.217Z,9.23
2018-09-05T00:48:12.045Z,10.57
2018-09-05T00:48:45.893Z,8.93
2018-09-05T00:49:21.023Z,11.40
2018-09-05T00:49:58.777Z,9.73
2018-09-05T00:50:32.629Z,13.17
2018-09-05T00:51:06.473Z,10.50
2018-09-05T00:51:40.350Z,13.70
2018-09-05T00:52:14.252Z,11.87
2018-09-05T00:52:48.128Z,13.57
2018-09-05T00:53:22.289Z,10.60
2018-09-05T00:53:56.138Z,10.63
2018-09-05T00:54:29.985Z,9.37
2018-09-05T00:55:04.261Z,10.70
2018-09-05T00:55:38.368Z,10.30
2018-09-05T00:56:12.227Z,9.20
2018-09-05T00:56:46.053Z,12.80
2018-09-05T00:57:20.296Z,8.67
2018-09-05T00:57:54.477Z,8.57
2018-09-05T00:58:28.322Z,12.73
2018-09-05T00:59:02.160Z,9.30
2018-09-05T00:59:36.004Z,11.43
2018-09-05T01:00:10.179Z,10.03
2018-09-05T01:00:44.092Z,10.67
2018-09-05T01:01:17.959Z,9.67
2018-09-05T01:01:51.786Z,10.50
2018-09-05T01:02:25.661Z,10.27
2018-09-05T01:03:00.242Z,9.80
2018-09-05T01:03:34.860Z,7.90
2018-09-05T01:04:08.722Z,9.53
2018-09-05T01:04:42.570Z,10.10
2018-09-05T01:05:16.748Z,8.50
2018-09-05T01:05:50.566Z,11.10
2018-09-05T01:06:24.406Z,9.47
2018-09-05T01:06:58.227Z,9.80
2018-09-05T01:07:32.094Z,9.70
2018-09-05T01:08:06.204Z,10.87
2018-09-05T01:08:40.042Z,11.63
2018-09-05T01:09:13.887Z,9.80
2018-09-05T01:09:47.745Z,11.90
2018-09-05T01:10:21.567Z,11.47
2018-09-05T01:10:55.719Z,10.40
2018-09-05T01:11:30.214Z,9.47
2018-09-05T01:12:04.038Z,10.33
2018-09-05T01:12:38.292Z,7.23
2018-09-05T01:13:12.116Z,9.43
2018-09-05T01:13:46.294Z,9.20
2018-09-05T01:14:20.134Z,8.77
2018-09-05T01:14:55.151Z,7.27
2018-09-05T01:15:29.013Z,11.13
2018-09-05T01:16:02.890Z,10.90
2018-09-05T01:16:36.740Z,8.90
2018-09-05T01:17:10.834Z,9.30
2018-09-05T01:17:44.782Z,7.97
2018-09-05T01:18:18.646Z,8.57
2018-09-05T01:18:52.838Z,8.17
2018-09-05T01:19:26.686Z,14.53
2018-09-05T01:20:00.868Z,10.73
2018-09-05T01:20:35.040Z,8.23
2018-09-05T01:21:08.918Z,8.50
2018-09-05T01:21:43.143Z,19.17
2018-09-05T01:22:17.024Z,10.60
2018-09-05T01:22:50.934Z,10.07
2018-09-05T01:23:24.832Z,8.70
2018-09-05T01:23:59.008Z,11.13
2018-09-05T01:24:32.833Z,10.03
2018-09-05T01:25:07.048Z,9.63
2018-09-05T01:25:40.888Z,9.17
2018-09-05T01:26:14.713Z,9.07
2018-09-05T01:26:48.566Z,10.60
2018-09-05T01:27:22.798Z,10.60
2018-09-05T01:27:56.670Z,10.20
2018-09-05T01:28:30.511Z,8.70
2018-09-05T01:29:04.370Z,12.10
2018-09-05T01:29:39.780Z,10.03
2018-09-05T01:30:13.638Z,11.27
2018-09-05T01:30:47.493Z,11.97
2018-09-05T01:31:21.566Z,11.00
2018-09-05T01:31:55.387Z,10.60
2018-09-05T01:32:29.256Z,8.03
2018-09-05T01:33:03.118Z,9.10
2018-09-05T01:33:37.237Z,10.83
2018-09-05T01:34:11.113Z,10.07
2018-09-05T01:34:44.968Z,10.73
2018-09-05T01:35:18.830Z,8.97
2018-09-05T01:35:57.822Z,10.80
2018-09-05T01:36:31.652Z,10.90
2018-09-05T01:37:05.824Z,11.17
2018-09-05T01:37:39.715Z,10.27
2018-09-05T01:38:13.608Z,17.63
2018-09-05T01:38:47.442Z,9.47
2018-09-05T01:39:21.337Z,11.77
2018-09-05T01:39:55.553Z,11.23
2018-09-05T01:40:29.388Z,9.83
2018-09-05T01:41:03.208Z,11.77
2018-09-05T01:41:37.382Z,9.13
2018-09-05T01:42:11.431Z,11.77
2018-09-05T01:42:45.608Z,12.60
2018-09-05T01:43:19.478Z,9.87
2018-09-05T01:43:53.310Z,10.20
2018-09-05T01:44:27.572Z,9.97
2018-09-05T01:45:01.404Z,9.43
2018-09-05T01:45:35.274Z,9.30
2018-09-05T01:46:09.438Z,10.70
2018-09-05T01:46:43.630Z,9.17
2018-09-05T01:47:17.466Z,9.70
2018-09-05T01:47:51.698Z,8.90
2018-09-05T01:48:25.862Z,9.40
2018-09-05T01:48:59.956Z,12.10
2018-09-05T01:49:33.817Z,11.87
2018-09-05T01:50:07.992Z,13.07
2018-09-05T01:50:43.532Z,10.77
2018-09-05T01:51:17.388Z,8.90
2018-09-05T01:51:56.174Z,10.40
2018-09-05T01:52:29.999Z,11.40
2018-09-05T01:53:04.262Z,13.37
2018-09-05T01:53:38.262Z,14.53
2018-09-05T01:54:12.096Z,11.20
2018-09-05T01:54:45.914Z,9.53
2018-09-05T01:55:19.772Z,11.90
2018-09-05T01:55:53.618Z,10.00
2018-09-05T01:56:27.448Z,9.93
2018-09-05T01:57:01.288Z,11.53
2018-09-05T01:57:35.286Z,11.13
2018-09-05T01:58:09.153Z,11.40
2018-09-05T01:58:43.037Z,10.07
2018-09-05T01:59:16.882Z,10.70
2018-09-05T01:59:50.722Z,12.43
2018-09-05T02:00:30.139Z,10.67
2018-09-05T02:01:04.653Z,10.23
2018-09-05T02:01:38.639Z,9.90
2018-09-05T02:02:13.805Z,10.57
2018-09-05T02:02:47.987Z,10.30
2018-09-05T02:03:21.810Z,9.87
2018-09-05T02:03:55.668Z,10.70
2018-09-05T02:04:29.505Z,9.63
2018-09-05T02:05:03.690Z,9.80
2018-09-05T02:05:37.889Z,10.80
2018-09-05T02:06:11.747Z,9.53
2018-09-05T02:06:45.619Z,9.97
2018-09-05T02:07:19.847Z,8.23
2018-09-05T02:07:53.701Z,9.23
2018-09-05T02:08:27.543Z,11.37
2018-09-05T02:09:01.943Z,12.20
2018-09-05T02:09:35.809Z,11.20
2018-09-05T02:10:10.711Z,14.90
2018-09-05T02:10:44.589Z,10.80
2018-09-05T02:11:18.976Z,8.90
2018-09-05T02:11:53.151Z,9.90
2018-09-05T02:12:27.037Z,11.03
2018-09-05T02:13:01.688Z,11.50
2018-09-05T02:13:35.584Z,13.40
2018-09-05T02:14:09.798Z,15.80
2018-09-05T02:14:43.654Z,10.13
2018-09-05T02:15:17.499Z,14.63
2018-09-05T02:15:51.670Z,9.00
2018-09-05T02:16:25.851Z,8.43
2018-09-05T02:16:59.680Z,9.43
2018-09-05T02:17:33.500Z,11.07
2018-09-05T02:18:07.700Z,10.70
2018-09-05T02:18:41.652Z,12.33
2018-09-05T02:19:15.572Z,8.73
2018-09-05T02:19:49.515Z,12.43
2018-09-05T02:20:24.041Z,8.47
2018-09-05T02:20:57.852Z,11.70
2018-09-05T02:21:32.056Z,16.63
2018-09-05T02:22:06.231Z,9.57
2018-09-05T02:22:40.094Z,10.10
2018-09-05T02:23:13.944Z,11.00
2018-09-05T02:23:47.792Z,10.07
2018-09-05T02:24:21.662Z,15.33
2018-09-05T02:24:55.516Z,10.40
2018-09-05T02:25:29.520Z,12.70
2018-09-05T02:26:03.700Z,9.37
2018-09-05T02:26:37.555Z,10.50
2018-09-05T02:27:11.412Z,10.87
2018-09-05T02:27:45.277Z,13.20
2018-09-05T02:28:19.160Z,9.30
2018-09-05T02:28:53.037Z,9.90
2018-09-05T02:29:26.914Z,9.80
2018-09-05T02:30:00.761Z,12.40
2018-09-05T02:30:34.598Z,16.80
2018-09-05T02:31:08.451Z,12.63
2018-09-05T02:31:42.523Z,10.60
2018-09-05T02:32:16.810Z,10.63
2018-09-05T02:32:50.645Z,13.20
2018-09-05T02:33:24.500Z,11.00
2018-09-05T02:33:58.359Z,9.27
2018-09-05T02:34:32.320Z,9.40
2018-09-05T02:35:06.584Z,11.83
2018-09-05T02:35:40.778Z,12.63
2018-09-05T02:36:15.030Z,10.33
2018-09-05T02:36:48.884Z,10.07
2018-09-05T02:37:23.083Z,10.00
2018-09-05T02:37:57.050Z,10.83
2018-09-05T02:38:30.895Z,11.00
2018-09-05T02:39:07.546Z,14.23
2018-09-05T02:39:41.743Z,11.93
2018-09-05T02:40:16.330Z,14.43
2018-09-05T02:40:50.768Z,11.87
2018-09-05T02:41:24.724Z,11.17
2018-09-05T02:41:58.910Z,10.43
2018-09-05T02:42:32.744Z,11.33
2018-09-05T02:43:07.080Z,10.87
2018-09-05T02:43:46.246Z,9.40
2018-09-05T02:44:21.870Z,10.23
2018-09-05T02:44:55.730Z,12.97
2018-09-05T02:45:29.560Z,10.53
2018-09-05T02:46:03.758Z,11.00
2018-09-05T02:46:37.930Z,11.57
2018-09-05T02:47:11.762Z,10.70
2018-09-05T02:47:45.624Z,11.00
2018-09-05T02:48:19.438Z,13.70
2018-09-05T02:48:53.302Z,13.20
2018-09-05T02:49:27.150Z,10.63
2018-09-05T02:50:01.362Z,12.87
2018-09-05T02:50:35.212Z,10.07
2018-09-05T02:51:09.072Z,11.70
2018-09-05T02:51:42.898Z,13.53
2018-09-05T02:52:16.716Z,12.67
2018-09-05T02:52:50.560Z,11.97
2018-09-05T02:53:24.416Z,9.00
2018-09-05T02:53:58.280Z,13.37
2018-09-05T02:54:32.128Z,10.73
2018-09-05T02:55:05.978Z,11.27
2018-09-05T02:55:45.302Z,8.97
2018-09-05T02:56:22.578Z,10.20
2018-09-05T02:56:56.412Z,10.90
2018-09-05T02:57:30.344Z,12.80
2018-09-05T02:58:04.207Z,9.80
2018-09-05T02:58:38.020Z,16.83
2018-09-05T02:59:11.854Z,11.87
2018-09-05T02:59:45.789Z,15.90
2018-09-05T03:00:19.992Z,12.57
2018-09-05T03:00:53.828Z,12.17
2018-09-05T03:01:27.998Z,14.70
2018-09-05T03:02:02.168Z,8.97
2018-09-05T03:02:36.678Z,14.50
2018-09-05T03:03:10.524Z,11.20
2018-09-05T03:03:44.404Z,12.10
2018-09-05T03:04:18.233Z,12.20
2018-09-05T03:04:52.067Z,9.60
2018-09-05T03:05:25.954Z,10.97
2018-09-05T03:05:59.796Z,12.07
2018-09-05T03:06:33.959Z,15.13
2018-09-05T03:07:07.834Z,11.73
2018-09-05T03:07:41.673Z,11.70
2018-09-05T03:08:16.180Z,12.13
2018-09-05T03:08:50.028Z,9.77
2018-09-05T03:09:23.918Z,9.97
2018-09-05T03:09:57.952Z,11.07
2018-09-05T03:10:31.902Z,14.50
2018-09-05T03:11:05.753Z,14.07
2018-09-05T03:11:39.594Z,10.83
2018-09-05T03:12:17.250Z,19.43
2018-09-05T03:12:51.093Z,12.07
2018-09-05T03:13:25.283Z,12.57
2018-09-05T03:13:59.134Z,11.20
2018-09-05T03:14:32.974Z,14.03
2018-09-05T03:15:06.818Z,10.03
2018-09-05T03:15:41.012Z,15.63
2018-09-05T03:16:15.211Z,13.00
2018-09-05T03:16:49.057Z,11.70
2018-09-05T03:17:23.246Z,11.97
2018-09-05T03:17:57.428Z,9.73
2018-09-05T03:18:31.271Z,11.33
2018-09-05T03:19:05.443Z,12.90
2018-09-05T03:19:39.276Z,13.30
2018-09-05T03:20:13.128Z,11.10
2018-09-05T03:20:47.035Z,10.90
2018-09-05T03:21:20.869Z,11.93
2018-09-05T03:21:54.715Z,11.77
2018-09-05T03:22:28.558Z,12.67
2018-09-05T03:23:02.444Z,14.10
2018-09-05T03:23:36.714Z,12.53
2018-09-05T03:24:10.635Z,13.73
2018-09-05T03:24:44.478Z,10.27
2018-09-05T03:25:18.312Z,12.90
2018-09-05T03:25:52.566Z,12.63
2018-09-05T03:26:27.095Z,14.23
2018-09-05T03:27:00.949Z,12.50
2018-09-05T03:27:34.794Z,13.00
2018-09-05T03:28:09.449Z,12.30
2018-09-05T03:28:43.272Z,9.47
2018-09-05T03:29:17.130Z,11.17
2018-09-05T03:29:51.092Z,16.70
2018-09-05T03:30:25.272Z,9.40
2018-09-05T03:30:59.125Z,11.73
2018-09-05T03:31:33.223Z,13.03
2018-09-05T03:32:07.106Z,11.97
2018-09-05T03:32:41.292Z,8.93
2018-09-05T03:33:15.213Z,12.60
2018-09-05T03:33:49.078Z,13.40
2018-09-05T03:34:22.992Z,9.10
2018-09-05T03:34:56.968Z,12.47
2018-09-05T03:35:30.925Z,12.13
2018-09-05T03:36:04.974Z,12.00
2018-09-05T03:36:38.815Z,13.10
2018-09-05T03:37:12.684Z,12.90
2018-09-05T03:37:46.556Z,14.90
2018-09-05T03:38:20.393Z,11.77
2018-09-05T03:38:54.246Z,14.57
2018-09-05T03:39:28.052Z,16.43
2018-09-05T03:40:01.905Z,11.23
2018-09-05T03:40:36.094Z,10.43
2018-09-05T03:41:09.952Z,12.00
2018-09-05T03:41:43.799Z,11.60
2018-09-05T03:42:17.633Z,13.47
2018-09-05T03:42:51.821Z,11.13
2018-09-05T03:43:26.161Z,11.80
2018-09-05T03:43:59.985Z,12.87
2018-09-05T03:44:33.820Z,11.27
2018-09-05T03:45:07.984Z,12.60
2018-09-05T03:45:41.817Z,12.10
2018-09-05T03:46:15.722Z,13.00
2018-09-05T03:46:49.559Z,16.70
2018-09-05T03:47:23.398Z,11.77
2018-09-05T03:47:57.256Z,11.30
2018-09-05T03:48:31.080Z,12.03
2018-09-05T03:49:05.041Z,14.50
2018-09-05T03:49:38.958Z,10.87
2018-09-05T03:50:13.317Z,12.80
2018-09-05T03:50:47.173Z,13.00
2018-09-05T03:51:21.048Z,12.67
2018-09-05T03:51:54.904Z,16.33
2018-09-05T03:52:28.753Z,18.60
2018-09-05T03:53:02.651Z,10.30
2018-09-05T03:53:36.498Z,11.87
2018-09-05T03:54:10.707Z,12.57
2018-09-05T03:54:45.090Z,13.53
2018-09-05T03:55:19.305Z,12.30
2018-09-05T03:55:53.902Z,14.00
2018-09-05T03:56:27.793Z,11.00
2018-09-05T03:57:01.650Z,12.50
2018-09-05T03:57:35.502Z,16.87
2018-09-05T03:58:09.396Z,11.60
2018-09-05T03:58:43.240Z,11.20
2018-09-05T03:59:17.128Z,17.73
2018-09-05T03:59:50.998Z,14.10
2018-09-05T04:00:24.837Z,11.97
2018-09-05T04:00:58.701Z,12.70
2018-09-05T04:01:32.561Z,12.87
2018-09-05T04:02:06.406Z,12.13
2018-09-05T04:02:40.270Z,17.17
2018-09-05T04:03:14.473Z,11.70
2018-09-05T04:03:49.453Z,19.00
2018-09-05T04:04:23.772Z,11.70
2018-09-05T04:04:59.026Z,13.47
2018-09-05T04:05:33.629Z,10.40
2018-09-05T04:06:07.459Z,11.40
2018-09-05T04:06:41.694Z,15.53
2018-09-05T04:07:15.599Z,15.77
2018-09-05T04:07:49.833Z,13.50
2018-09-05T04:08:23.695Z,14.83
2018-09-05T04:08:57.535Z,18.07
2018-09-05T04:09:31.569Z,14.00
2018-09-05T04:10:05.816Z,16.70
2018-09-05T04:10:39.678Z,18.37
2018-09-05T04:11:13.520Z,18.60
2018-09-05T04:11:47.402Z,16.20
2018-09-05T04:12:21.631Z,13.30
2018-09-05T04:12:55.447Z,16.60
2018-09-05T04:13:29.307Z,15.87
2018-09-05T04:14:03.511Z,14.87
2018-09-05T04:14:37.680Z,15.57
2018-09-05T04:15:12.297Z,13.47
2018-09-05T04:15:46.153Z,13.97
2018-09-05T04:16:20.243Z,15.20
2018-09-05T04:16:54.121Z,15.80
2018-09-05T04:17:27.977Z,16.17
2018-09-05T04:18:01.835Z,15.50
2018-09-05T04:18:36.042Z,16.60
2018-09-05T04:19:10.015Z,22.93
2018-09-05T04:19:43.855Z,19.50
2018-09-05T04:20:17.719Z,21.20
2018-09-05T04:20:51.543Z,20.20
2018-09-05T04:21:25.377Z,18.73
2018-09-05T04:21:59.292Z,18.10
2018-09-05T04:22:33.349Z,20.07
2018-09-05T04:23:07.223Z,18.93
2018-09-05T04:23:45.283Z,16.00
2018-09-05T04:24:19.154Z,19.47
2018-09-05T04:24:52.985Z,20.53
2018-09-05T04:25:26.832Z,17.20
2018-09-05T04:26:00.691Z,19.80
2018-09-05T04:26:34.564Z,16.30
2018-09-05T04:27:08.447Z,16.83
2018-09-05T04:27:42.323Z,22.43
2018-09-05T04:28:16.166Z,22.00
2018-09-05T04:28:49.988Z,17.73
2018-09-05T04:29:24.261Z,17.03
2018-09-05T04:29:58.311Z,15.70
2018-09-05T04:30:32.315Z,17.20
2018-09-05T04:31:06.897Z,15.87
2018-09-05T04:31:40.743Z,14.80
2018-09-05T04:32:14.633Z,14.20
2018-09-05T04:32:48.472Z,18.53
2018-09-05T04:33:22.291Z,17.50
2018-09-05T04:33:56.125Z,18.53
2018-09-05T04:34:30.317Z,16.43
2018-09-05T04:35:04.519Z,14.40
2018-09-05T04:35:38.691Z,19.67
2018-09-05T04:36:14.156Z,17.60
2018-09-05T04:36:47.989Z,16.17
2018-09-05T04:37:21.899Z,17.47
2018-09-05T04:37:55.760Z,16.40
2018-09-05T04:39:10.664Z,19.63
2018-09-05T04:39:44.493Z,19.03
2018-09-05T04:40:18.321Z,17.63
2018-09-05T04:40:52.163Z,16.07
2018-09-05T04:41:26.352Z,20.10
2018-09-05T04:42:00.225Z,20.73
2018-09-05T04:42:34.413Z,22.43
2018-09-05T04:43:08.267Z,17.80
2018-09-05T04:43:42.171Z,21.77
2018-09-05T04:44:16.005Z,19.10
2018-09-05T04:44:50.195Z,25.73
2018-09-05T04:45:24.361Z,22.17
2018-09-05T04:45:58.223Z,22.03
2018-09-05T04:46:32.949Z,24.13
2018-09-05T04:47:06.785Z,17.97
2018-09-05T04:47:40.657Z,20.47
2018-09-05T04:48:14.509Z,21.70
2018-09-05T04:48:48.367Z,22.43
2018-09-05T04:49:22.219Z,18.40
2018-09-05T04:49:56.117Z,19.33
2018-09-05T04:50:29.959Z,18.00
2018-09-05T04:51:04.186Z,19.80
2018-09-05T04:51:38.194Z,18.60
2018-09-05T04:52:12.080Z,17.70
2018-09-05T04:52:46.051Z,20.10
2018-09-05T04:53:20.283Z,19.97
2018-09-05T04:53:54.467Z,17.60
2018-09-05T04:54:28.304Z,15.77
2018-09-05T04:55:02.139Z,16.97
2018-09-05T04:55:35.977Z,16.83
2018-09-05T04:56:10.025Z,17.50
2018-09-05T04:56:44.179Z,17.50
2018-09-05T04:57:18.023Z,18.20
2018-09-05T04:57:51.996Z,18.40
2018-09-05T04:58:25.836Z,17.00
2018-09-05T04:58:59.812Z,16.17
2018-09-05T04:59:33.941Z,14.33
2018-09-05T05:00:07.786Z,17.33
2018-09-05T05:00:41.641Z,21.33
2018-09-05T05:01:15.501Z,15.60
2018-09-05T05:01:49.331Z,13.53
2018-09-05T05:02:23.173Z,14.10
2018-09-05T05:02:57.067Z,15.30
2018-09-05T05:03:30.913Z,16.50
2018-09-05T05:04:05.660Z,20.13
2018-09-05T05:04:39.729Z,16.00
2018-09-05T05:05:13.603Z,15.33
2018-09-05T05:05:47.498Z,17.00
2018-09-05T05:06:21.491Z,18.80
2018-09-05T05:06:55.323Z,18.37
2018-09-05T05:07:29.197Z,16.87
2018-09-05T05:08:03.399Z,15.00
2018-09-05T05:08:37.447Z,15.90
2018-09-05T05:09:12.212Z,12.03
2018-09-05T05:09:46.051Z,15.73
2018-09-05T05:10:19.909Z,15.30
2018-09-05T05:10:53.745Z,20.37
2018-09-05T05:11:27.595Z,16.00
2018-09-05T05:12:01.810Z,16.33
2018-09-05T05:12:35.717Z,14.57
2018-09-05T05:13:09.727Z,17.40
2018-09-05T05:13:43.551Z,12.90
2018-09-05T05:14:17.415Z,18.23
2018-09-05T05:14:51.251Z,17.40
2018-09-05T05:15:25.425Z,15.20
2018-09-05T05:15:59.351Z,15.10
2018-09-05T05:16:33.536Z,14.23
2018-09-05T05:17:07.481Z,13.33
2018-09-05T05:17:41.344Z,13.90
2018-09-05T05:18:15.258Z,15.80
2018-09-05T05:18:49.418Z,14.43
2018-09-05T05:19:23.396Z,12.83
2018-09-05T05:19:57.252Z,13.93
2018-09-05T05:20:31.114Z,12.63
2018-09-05T05:21:05.349Z,13.60
2018-09-05T05:21:39.731Z,13.23
2018-09-05T05:22:13.814Z,12.83
2018-09-05T05:22:47.680Z,14.90
2018-09-05T05:23:21.535Z,15.13
2018-09-05T05:23:55.553Z,15.00
2018-09-05T05:24:29.405Z,14.60
2018-09-05T05:25:03.580Z,13.90
2018-09-05T05:25:37.772Z,11.23
2018-09-05T05:26:11.601Z,17.20
2018-09-05T05:26:45.466Z,11.30
2018-09-05T05:27:19.643Z,12.70
2018-09-05T05:27:53.861Z,11.03
2018-09-05T05:28:27.708Z,15.30
2018-09-05T05:29:01.554Z,10.40
2018-09-05T05:29:35.384Z,15.53
2018-09-05T05:30:09.320Z,10.70
2018-09-05T05:30:43.200Z,11.20
2018-09-05T05:31:17.052Z,10.97
2018-09-05T05:31:51.210Z,14.63
2018-09-05T05:32:25.080Z,13.00
2018-09-05T05:32:59.200Z,10.83
2018-09-05T05:33:33.874Z,11.50
2018-09-05T05:34:07.717Z,10.37
2018-09-05T05:34:41.549Z,9.37
2018-09-05T05:35:15.840Z,12.63
2018-09-05T05:35:50.046Z,13.67
2018-09-05T05:36:23.875Z,10.80
2018-09-05T05:36:57.693Z,12.13
2018-09-05T05:37:31.511Z,9.80
2018-09-05T05:38:05.692Z,9.83
2018-09-05T05:38:39.811Z,9.33
2018-09-05T05:39:13.971Z,10.67
2018-09-05T05:39:47.831Z,9.90
2018-09-05T05:40:22.016Z,10.13
2018-09-05T05:40:56.069Z,9.30
2018-09-05T05:41:30.235Z,11.47
2018-09-05T05:42:04.424Z,9.63
2018-09-05T05:42:38.642Z,8.97
2018-09-05T05:43:12.470Z,9.67
2018-09-05T05:43:46.760Z,8.70
2018-09-05T05:44:20.926Z,8.83
2018-09-05T05:44:54.793Z,11.80
2018-09-05T05:45:28.793Z,13.60
2018-09-05T05:46:02.692Z,8.80
2018-09-05T05:46:37.361Z,7.67
2018-09-05T05:47:11.452Z,8.20
2018-09-05T05:47:45.426Z,7.33
2018-09-05T05:48:19.665Z,10.90
2018-09-05T05:48:53.708Z,7.33
2018-09-05T05:49:27.574Z,9.60
2018-09-05T05:50:01.962Z,13.23
2018-09-05T05:50:35.838Z,9.10
2018-09-05T05:51:09.694Z,9.40
2018-09-05T05:51:43.913Z,7.80
2018-09-05T05:52:17.769Z,7.27
2018-09-05T05:52:51.658Z,10.37
2018-09-05T05:53:25.490Z,10.33
2018-09-05T05:53:59.677Z,9.63
2018-09-05T05:54:33.522Z,9.37
2018-09-05T05:55:07.474Z,7.63
2018-09-05T05:55:41.796Z,10.13
2018-09-05T05:56:15.656Z,10.30
2018-09-05T05:56:49.497Z,11.43
2018-09-05T05:57:23.362Z,7.77
2018-09-05T05:57:57.210Z,7.30
2018-09-05T05:58:31.628Z,8.20
2018-09-05T05:59:05.838Z,8.03
2018-09-05T05:59:39.672Z,9.50
2018-09-05T06:00:13.560Z,6.67
2018-09-05T06:00:47.478Z,9.60
2018-09-05T06:01:21.466Z,7.30
2018-09-05T06:01:55.388Z,9.03
2018-09-05T06:02:29.372Z,7.77
2018-09-05T06:03:03.597Z,7.70
2018-09-05T06:03:37.858Z,8.67
2018-09-05T06:04:11.753Z,10.90
2018-09-05T06:05:25.834Z,7.20
2018-09-05T06:06:00.084Z,7.97
2018-09-05T06:06:34.112Z,7.47
2018-09-05T06:07:08.360Z,9.93
2018-09-05T06:07:42.228Z,7.23
2018-09-05T06:08:16.060Z,8.07
2018-09-05T06:08:49.934Z,8.03
2018-09-05T06:09:23.806Z,10.43
2018-09-05T06:09:57.654Z,6.60
2018-09-05T06:10:31.510Z,6.97
2018-09-05T06:11:06.494Z,10.17
2018-09-05T06:11:40.732Z,9.70
2018-09-05T06:12:15.099Z,6.70
2018-09-05T06:12:49.362Z,7.63
2018-09-05T06:13:23.221Z,8.27
2018-09-05T06:13:57.104Z,11.17
2018-09-05T06:14:31.376Z,8.10
2018-09-05T06:15:05.906Z,8.60
2018-09-05T06:15:40.158Z,8.57
2018-09-05T06:16:14.764Z,8.53
2018-09-05T06:16:48.620Z,7.37
2018-09-05T06:17:22.486Z,7.80
2018-09-05T06:17:56.555Z,8.20
2018-09-05T06:18:30.574Z,10.63
2018-09-05T06:19:04.458Z,6.80
2018-09-05T06:19:38.397Z,7.97
2018-09-05T06:20:12.574Z,8.50
2018-09-05T06:20:46.430Z,7.93
2018-09-05T06:21:20.618Z,6.93
2018-09-05T06:21:54.464Z,8.80
2018-09-05T06:22:28.886Z,7.00
2018-09-05T06:23:02.742Z,9.20
2018-09-05T06:23:36.664Z,6.97
2018-09-05T06:24:10.564Z,7.90
2018-09-05T06:24:44.598Z,7.30
2018-09-05T06:25:19.305Z,6.20
2018-09-05T06:25:53.483Z,6.23
2018-09-05T06:26:27.324Z,6.63
2018-09-05T06:27:01.301Z,7.60
2018-09-05T06:27:35.165Z,6.87
2018-09-05T06:28:09.012Z,7.20
2018-09-05T06:28:42.892Z,9.20
2018-09-05T06:29:17.277Z,8.70
2018-09-05T06:29:51.184Z,10.03
2018-09-05T06:30:25.126Z,10.30
2018-09-05T06:30:59.113Z,12.93
2018-09-05T06:31:33.146Z,8.70
2018-09-05T06:32:07.325Z,8.63
2018-09-05T06:32:41.178Z,7.17
2018-09-05T06:33:15.318Z,6.50
2018-09-05T06:33:49.155Z,7.43
2018-09-05T06:34:23.330Z,9.67
2018-09-05T06:34:57.513Z,9.20
2018-09-05T06:35:31.342Z,9.53
2018-09-05T06:36:05.166Z,7.00
2018-09-05T06:36:39.065Z,9.20
2018-09-05T06:37:13.094Z,8.10
2018-09-05T06:37:47.088Z,8.43
2018-09-05T06:38:20.940Z,12.87
2018-09-05T06:38:55.161Z,9.70
2018-09-05T06:39:29.184Z,6.93
2018-09-05T06:40:03.256Z,7.50
2018-09-05T06:40:37.086Z,10.20
2018-09-05T06:41:10.972Z,7.63
2018-09-05T06:41:45.548Z,6.80
2018-09-05T06:42:19.466Z,8.60
2018-09-05T06:42:53.352Z,6.60
2018-09-05T06:43:27.176Z,6.30
2018-09-05T06:44:01.063Z,12.00
2018-09-05T06:44:34.942Z,7.70
2018-09-05T06:45:09.338Z,7.17
2018-09-05T06:45:43.504Z,6.83
2018-09-05T06:46:17.570Z,6.77
2018-09-05T06:46:51.765Z,6.60
2018-09-05T06:47:25.636Z,10.33
2018-09-05T06:47:59.589Z,9.70
2018-09-05T06:48:33.454Z,6.80
2018-09-05T06:49:07.434Z,9.30
2018-09-05T06:49:41.315Z,9.47
2018-09-05T06:50:15.584Z,8.20
2018-09-05T06:50:52.342Z,7.43
2018-09-05T06:51:26.258Z,8.80
2018-09-05T06:52:00.328Z,7.10
2018-09-05T06:52:34.739Z,7.87
2018-09-05T06:53:08.686Z,7.00
2018-09-05T06:53:42.538Z,7.03
2018-09-05T06:54:16.421Z,6.83
2018-09-05T06:54:50.424Z,9.43
2018-09-05T06:55:24.368Z,8.93
2018-09-05T06:55:58.967Z,11.80
2018-09-05T06:56:33.928Z,7.10
2018-09-05T06:57:07.800Z,6.60
2018-09-05T06:57:42.976Z,9.50
2018-09-05T06:58:19.190Z,7.20
2018-09-05T06:58:54.548Z,5.43
2018-09-05T06:59:28.472Z,7.43
2018-09-05T07:00:02.468Z,6.40
2018-09-05T07:00:37.598Z,11.37
2018-09-05T07:01:11.620Z,9.20
2018-09-05T07:01:46.161Z,7.00
2018-09-05T07:02:20.868Z,9.70
2018-09-05T07:02:55.614Z,8.27
2018-09-05T07:03:30.645Z,6.20
2018-09-05T07:04:05.406Z,10.00
2018-09-05T07:04:39.456Z,8.70
2018-09-05T07:05:15.011Z,8.40
2018-09-05T07:05:50.661Z,7.57
2018-09-05T07:06:26.766Z,6.17
2018-09-05T07:07:01.588Z,6.37
2018-09-05T07:07:37.825Z,6.23
2018-09-05T07:08:11.829Z,7.63
2018-09-05T07:08:47.106Z,7.07
2018-09-05T07:09:21.257Z,6.67
2018-09-05T07:09:56.152Z,8.20
2018-09-05T07:10:31.607Z,7.70
2018-09-05T07:11:06.153Z,8.37
2018-09-05T07:11:40.693Z,6.63
2018-09-05T07:12:15.440Z,6.40
2018-09-05T07:12:49.309Z,7.60
2018-09-05T07:13:23.975Z,7.40
2018-09-05T07:13:59.285Z,7.67
2018-09-05T07:14:33.614Z,6.47
2018-09-05T07:15:07.506Z,6.53
2018-09-05T07:15:41.910Z,6.70
2018-09-05T07:16:16.712Z,6.07
2018-09-05T07:16:51.661Z,5.40
2018-09-05T07:17:26.546Z,5.40
2018-09-05T07:18:00.945Z,8.90
2018-09-05T07:18:36.479Z,6.10
2018-09-05T07:19:12.543Z,6.27
2018-09-05T07:19:47.575Z,5.07
2018-09-05T07:20:22.597Z,5.30
2018-09-05T07:21:05.690Z,6.37
2018-09-05T07:21:32.990Z,6.30
2018-09-05T07:22:07.939Z,6.20
2018-09-05T07:22:42.082Z,6.33
2018-09-05T07:23:16.683Z,7.37
2018-09-05T07:23:51.788Z,7.90
2018-09-05T07:24:27.736Z,5.73
2018-09-05T07:25:02.177Z,8.07
2018-09-05T07:25:36.910Z,6.33
2018-09-05T07:26:12.817Z,6.90
2018-09-05T07:26:47.864Z,7.63